Time;durP1;ratioP1;P1;durP2;ratioP2;P2;SDS_P1;SDS_P2;PMS_P1;PMS_P2;Temp;Humidity;BMP_temperature;BMP_pressure;BME280_temperature;BME280_humidity;BME280_pressure;Samples;Min_cycle;Max_cycle;Signal;HPM_P1;HPM_P2
2021/04/13 00:00:29;;;;;;;25.32;10.88;;;;;;;2.41;88.38;99506.31;2236217;79;21567;-73
2021/04/13 00:03:32;;;;;;;24.02;10.18;;;;;;;2.41;87.62;99484.72;2263623;78;21110;-74
2021/04/13 00:06:34;;;;;;;24.00;11.00;;;;;;;2.41;87.21;99485.59;2263539;78;21142;-72
2021/04/13 00:09:36;;;;;;;23.98;10.70;;;;;;;2.39;87.54;99495.11;2263580;78;21142;-76
2021/04/13 00:12:38;;;;;;;24.63;10.28;;;;;;;2.42;87.18;99500.23;2263505;78;21154;-75
2021/04/13 00:15:40;;;;;;;23.32;9.33;;;;;;;2.43;87.16;99501.95;2263935;78;21284;-73
2021/04/13 00:18:42;;;;;;;24.37;9.60;;;;;;;2.44;87.70;99513.15;2263580;78;21591;-75
2021/04/13 00:21:44;;;;;;;23.47;8.83;;;;;;;2.43;86.93;99510.17;2263858;78;21150;-72
2021/04/13 00:24:46;;;;;;;24.32;9.78;;;;;;;2.41;87.76;99505.44;2263975;78;21705;-77
2021/04/13 00:27:48;;;;;;;23.95;9.50;;;;;;;2.39;87.65;99508.05;2283440;78;21300;-77
2021/04/13 00:30:50;;;;;;;23.27;9.48;;;;;;;2.36;87.63;99515.88;2283393;78;21117;-77
2021/04/13 00:33:52;;;;;;;23.83;9.45;;;;;;;2.35;87.37;99502.96;2283469;78;21697;-76
2021/04/13 00:36:55;;;;;;;23.32;10.23;;;;;;;2.34;88.73;99509.88;2283393;78;21723;-75
2021/04/13 00:39:57;;;;;;;;;;;;;;;2.35;87.10;99512.86;2286077;78;21264;-74
2021/04/13 00:42:59;;;;;;;23.05;9.40;;;;;;;2.35;87.33;99506.39;2283661;78;20514;-72
2021/04/13 00:46:01;;;;;;;23.00;9.80;;;;;;;2.36;86.78;99522.34;2283365;78;21263;-77
2021/04/13 00:49:03;;;;;;;22.62;9.83;;;;;;;2.33;86.52;99506.88;2283333;78;21141;-77
2021/04/13 00:52:05;;;;;;;24.30;10.20;;;;;;;2.33;87.07;99508.59;2283303;78;21256;-73
2021/04/13 00:55:07;;;;;;;23.75;10.08;;;;;;;2.29;86.97;99500.48;2250947;78;21248;-74
2021/04/13 00:58:09;;;;;;;22.58;9.33;;;;;;;2.25;86.42;99502.25;2283416;78;21256;-77
2021/04/13 01:01:11;;;;;;;24.50;9.93;;;;;;;2.19;86.74;99514.01;2283362;78;21280;-73
2021/04/13 01:04:13;;;;;;;24.05;10.48;;;;;;;2.13;86.58;99504.60;2283326;78;21272;-76
2021/04/13 01:07:15;;;;;;;24.52;10.23;;;;;;;2.02;86.83;99498.73;2283313;78;21303;-77
2021/04/13 01:10:17;;;;;;;24.07;10.88;;;;;;;1.89;86.77;99508.41;2283341;78;21271;-74
2021/04/13 01:13:20;;;;;;;25.68;10.82;;;;;;;1.73;86.80;99505.20;2283343;78;21263;-75
2021/04/13 01:16:22;;;;;;;25.32;11.30;;;;;;;1.57;87.36;99501.97;2283336;78;21289;-75
2021/04/13 01:19:24;;;;;;;23.95;10.85;;;;;;;1.45;86.63;99502.12;2283283;78;21157;-74
2021/04/13 01:22:29;;;;;;;23.85;10.10;;;;;;;1.34;87.90;99502.27;2283703;78;21300;-77
2021/04/13 01:25:30;;;;;;;25.40;11.38;;;;;;;1.23;88.22;99501.09;2250259;78;21719;-74
2021/04/13 01:28:32;;;;;;;24.12;10.35;;;;;;;1.18;87.58;99504.19;2283876;78;21263;-75
2021/04/13 01:31:48;;;;;;;23.65;10.00;;;;;;;1.12;88.07;99502.95;2283329;78;21086;-72
2021/04/13 01:34:54;;;;;;;23.12;10.35;;;;;;;1.04;88.83;99523.72;2283177;78;21319;-72
2021/04/13 01:38:02;;;;;;;22.70;9.95;;;;;;;0.98;88.65;99525.93;2283272;78;21712;-72
2021/04/13 01:41:08;;;;;;;21.50;8.93;;;;;;;0.92;89.25;99536.75;2283193;78;21291;-73
2021/04/13 01:44:07;;;;;;;22.82;9.78;;;;;;;0.87;89.50;99532.93;2283387;78;21280;-75
2021/04/13 01:47:09;;;;;;;22.15;8.78;;;;;;;0.80;89.11;99533.42;2283368;78;21093;-72
2021/04/13 01:50:14;;;;;;;19.98;7.53;;;;;;;0.75;89.84;99536.91;2277914;78;21283;-73
2021/04/13 01:53:21;;;;;;;20.27;7.90;;;;;;;0.72;89.90;99542.11;2283282;78;21125;-73
2021/04/13 01:56:23;;;;;;;21.42;7.87;;;;;;;0.65;89.92;99540.89;2283354;78;21259;-75
2021/04/13 01:59:34;;;;;;;;;;;;;;;0.62;89.86;99540.92;2285906;78;21296;-73
2021/04/13 02:02:39;;;;;;;19.77;7.53;;;;;;;0.61;89.81;99540.94;2283181;78;20219;-77
2021/04/13 02:05:42;;;;;;;20.50;7.03;;;;;;;0.57;90.19;99543.97;2283412;78;21749;-73
2021/04/13 02:08:47;;;;;;;19.23;6.70;;;;;;;0.54;90.28;99549.61;2283282;78;21577;-73
2021/04/13 02:11:49;;;;;;;17.82;5.92;;;;;;;0.53;90.07;99548.73;2283142;78;21129;-73
2021/04/13 02:14:51;;;;;;;17.15;5.87;;;;;;;0.52;89.72;99553.50;2283331;78;21137;-73
2021/04/13 02:17:53;;;;;;;18.27;6.05;;;;;;;0.53;89.42;99554.34;2283332;78;21137;-76
2021/04/13 02:20:55;;;;;;;16.37;5.62;;;;;;;0.52;89.72;99559.95;2283258;78;21585;-74
2021/04/13 02:23:57;;;;;;;16.35;5.15;;;;;;;0.51;89.46;99563.39;2283697;78;21268;-78
2021/04/13 02:26:59;;;;;;;15.90;5.25;;;;;;;0.51;89.86;99567.27;2283372;78;21744;-78
2021/04/13 02:30:01;;;;;;;14.50;4.42;;;;;;;0.51;89.74;99559.52;2283337;78;21755;-76
2021/04/13 02:33:03;;;;;;;15.08;4.92;;;;;;;0.50;89.47;99570.70;2283762;78;21674;-78
2021/04/13 02:36:05;;;;;;;16.42;5.40;;;;;;;0.49;89.45;99562.56;2283511;78;21252;-79
2021/04/13 02:39:07;;;;;;;15.10;4.92;;;;;;;0.49;89.54;99563.85;2283607;78;21263;-80
2021/04/13 02:42:09;;;;;;;13.28;4.83;;;;;;;0.48;89.73;99562.97;2283530;78;21264;-77
2021/04/13 02:45:11;;;;;;;16.20;5.70;;;;;;;0.46;90.05;99565.14;2283603;78;21723;-76
2021/04/13 02:48:13;;;;;;;16.40;5.50;;;;;;;0.45;89.27;99571.20;2283935;78;21263;-81
2021/04/13 02:51:15;;;;;;;18.50;6.08;;;;;;;0.45;89.39;99556.55;2283541;78;21272;-77
2021/04/13 02:54:17;;;;;;;17.02;5.47;;;;;;;0.45;89.28;99566.03;2283597;78;21280;-76
2021/04/13 02:57:19;;;;;;;14.70;5.05;;;;;;;0.46;89.51;99552.23;2283507;78;21295;-80
2021/04/13 03:00:21;;;;;;;14.90;4.72;;;;;;;0.48;88.90;99551.36;2283628;78;21292;-77
2021/04/13 03:03:23;;;;;;;13.53;4.62;;;;;;;0.47;89.44;99548.34;2283570;78;21727;-84
2021/04/13 03:06:25;;;;;;;12.93;4.58;;;;;;;0.45;89.37;99550.09;2283593;78;21287;-77
2021/04/13 03:09:27;;;;;;;14.55;4.17;;;;;;;0.43;89.32;99561.30;2283729;78;21275;-85
2021/04/13 03:12:29;;;;;;;13.22;3.80;;;;;;;0.45;89.77;99554.41;2283685;78;21763;-79
2021/04/13 03:15:31;;;;;;;13.48;4.12;;;;;;;0.41;89.93;99560.47;2284042;78;21288;-82
2021/04/13 03:18:33;;;;;;;12.55;3.98;;;;;;;0.42;89.48;99566.06;2283598;78;21260;-76
2021/04/13 03:21:36;;;;;;;9.55;3.60;;;;;;;0.40;89.55;99552.30;2283560;78;21591;-86
2021/04/13 03:24:38;;;;;;;14.33;4.12;;;;;;;0.38;89.73;99573.40;2283701;78;21261;-85
2021/04/13 03:27:40;;;;;;;11.12;3.92;;;;;;;0.35;89.93;99574.27;2283645;78;21696;-78
2021/04/13 03:30:42;;;;;;;10.58;3.37;;;;;;;0.32;89.46;99575.14;2283761;78;21808;-84
2021/04/13 03:33:44;;;;;;;12.75;3.87;;;;;;;0.30;90.20;99579.89;2283500;78;21280;-76
2021/04/13 03:36:46;;;;;;;9.40;3.33;;;;;;;0.31;89.75;99584.19;2250713;78;21275;-75
2021/04/13 03:39:48;;;;;;;9.78;3.50;;;;;;;0.31;90.11;99593.22;2283931;78;21291;-73
2021/04/13 03:42:50;;;;;;;11.00;3.35;;;;;;;0.31;89.88;99601.81;2283429;78;21272;-82
2021/04/13 03:45:52;;;;;;;8.98;3.10;;;;;;;0.34;89.59;99600.53;2283471;78;21295;-76
2021/04/13 03:48:54;;;;;;;9.95;3.40;;;;;;;0.32;89.95;99597.08;2283832;78;21271;-76
2021/04/13 03:51:56;;;;;;;10.20;3.20;;;;;;;0.29;89.94;99607.43;2283674;78;21287;-72
2021/04/13 03:54:58;;;;;;;12.45;3.52;;;;;;;0.31;89.76;99604.84;2283443;78;21271;-75
2021/04/13 03:58:00;;;;;;;9.73;3.37;;;;;;;0.29;90.34;99602.27;2283431;78;21271;-77
2021/04/13 04:01:02;;;;;;;8.78;3.00;;;;;;;0.31;89.58;99639.68;2283346;78;21308;-73
2021/04/13 04:04:04;;;;;;;11.53;3.42;;;;;;;0.31;89.73;99622.91;2283432;78;21264;-74
2021/04/13 04:07:06;;;;;;;11.57;3.22;;;;;;;0.29;89.32;99620.78;2283528;78;21712;-75
2021/04/13 04:10:08;;;;;;;10.00;3.12;;;;;;;0.29;89.32;99620.78;2283427;78;21708;-73
2021/04/13 04:13:10;;;;;;;8.83;3.12;;;;;;;0.36;89.61;99628.91;2283400;78;21708;-74
2021/04/13 04:16:13;;;;;;;7.83;3.15;;;;;;;0.35;89.51;99624.60;2283379;78;21292;-75
2021/04/13 04:19:15;;;;;;;9.05;3.00;;;;;;;0.37;89.39;99631.89;2283305;78;21133;-73
2021/04/13 04:22:17;;;;;;;8.03;2.77;;;;;;;0.41;88.94;99629.71;2283392;78;21276;-77
2021/04/13 04:25:19;;;;;;;12.20;3.33;;;;;;;0.47;88.72;99627.08;2283435;78;21259;-75
2021/04/13 04:28:21;;;;;;;8.23;3.00;;;;;;;0.46;88.92;99632.26;2283373;78;21153;-75
2021/04/13 04:31:34;;;;;;;7.20;2.83;;;;;;;0.49;88.54;99618.91;2283797;78;21130;-76
2021/04/13 04:34:28;;;;;;;8.60;2.98;;;;;;;0.48;88.78;99636.55;2283243;78;21264;-75
2021/04/13 04:37:30;;;;;;;11.85;3.20;;;;;;;0.49;88.52;99638.27;2283426;78;21268;-74
2021/04/13 04:40:32;;;;;;;11.10;3.30;;;;;;;0.51;88.51;99635.67;2283503;78;21323;-75
2021/04/13 04:43:34;;;;;;;11.22;2.92;;;;;;;0.54;88.26;99632.22;2283469;78;21700;-72
2021/04/13 04:46:36;;;;;;;8.43;3.27;;;;;;;0.59;88.31;99641.65;2283353;78;21720;-75
2021/04/13 04:49:39;;;;;;;10.63;3.22;;;;;;;0.63;88.21;99645.05;2283448;78;21260;-77
2021/04/13 04:52:41;;;;;;;10.00;3.37;;;;;;;0.64;88.03;99655.81;2277831;78;21169;-74
2021/04/13 04:55:43;;;;;;;9.48;3.30;;;;;;;0.65;88.02;99642.88;2283731;78;21287;-74
2021/04/13 04:58:45;;;;;;;8.33;3.25;;;;;;;0.64;88.22;99649.36;2283359;78;21287;-73
2021/04/13 05:01:47;;;;;;;10.53;3.62;;;;;;;0.64;88.19;99663.55;2283518;78;21589;-78
2021/04/13 05:04:49;;;;;;;8.50;3.58;;;;;;;0.66;87.96;99654.94;2283346;78;21287;-72
2021/04/13 05:07:51;;;;;;;8.15;3.25;;;;;;;0.72;87.69;99671.23;2283399;78;21259;-72
2021/04/13 05:10:53;;;;;;;9.75;3.50;;;;;;;0.77;87.63;99658.71;2283357;78;21161;-73
2021/04/13 05:13:55;;;;;;;9.18;3.60;;;;;;;0.78;87.50;99660.88;2283323;78;21260;-73
2021/04/13 05:16:57;;;;;;;6.35;2.80;;;;;;;0.81;87.17;99671.19;2283523;78;21268;-73
2021/04/13 05:19:59;;;;;;;8.30;3.35;;;;;;;0.83;86.81;99684.93;2277924;78;21275;-73
2021/04/13 05:23:00;;;;;;;10.75;3.37;;;;;;;0.84;86.77;99687.50;2283407;78;21762;-74
2021/04/13 05:26:03;;;;;;;10.72;3.55;;;;;;;0.87;86.70;99695.66;2283326;78;21102;-77
2021/04/13 05:29:07;;;;;;;9.93;3.22;;;;;;;0.94;86.70;99688.73;2264013;78;21275;-72
2021/04/13 05:32:09;;;;;;;9.18;3.20;;;;;;;0.97;86.56;99697.30;2263579;79;21284;-75
2021/04/13 05:35:11;;;;;;;10.38;3.50;;;;;;;0.97;86.60;99697.30;2236127;79;21276;-72
2021/04/13 05:38:13;;;;;;;11.05;3.42;;;;;;;0.95;86.74;99707.22;2263539;78;21094;-73
2021/04/13 05:41:15;;;;;;;10.72;3.50;;;;;;;0.94;86.55;99721.88;2263536;78;21268;-76
2021/04/13 05:44:18;;;;;;;10.93;3.60;;;;;;;0.96;86.60;99716.70;2263525;78;21574;-73
2021/04/13 05:47:20;;;;;;;9.40;3.60;;;;;;;0.97;86.38;99711.95;2263395;78;21134;-73
2021/04/13 05:50:22;;;;;;;11.12;3.92;;;;;;;0.97;86.57;99724.43;2263504;78;21103;-73
2021/04/13 05:53:24;;;;;;;12.85;4.20;;;;;;;1.03;86.57;99728.28;2263580;78;21260;-74
2021/04/13 05:56:26;;;;;;;13.53;4.00;;;;;;;1.12;86.07;99722.59;2263501;78;21617;-73
2021/04/13 05:59:31;;;;;;;11.35;4.05;;;;;;;1.17;85.96;99724.72;2263484;78;21586;-74
2021/04/13 06:02:32;;;;;;;12.63;3.90;;;;;;;1.21;85.72;99722.09;2263390;78;21742;-73
2021/04/13 06:05:35;;;;;;;12.63;3.92;;;;;;;1.23;85.64;99727.24;2263606;78;21280;-75
2021/04/13 06:08:37;;;;;;;11.85;3.80;;;;;;;1.28;85.38;99733.66;2263676;78;21315;-73
2021/04/13 06:11:39;;;;;;;13.68;4.42;;;;;;;1.35;85.22;99737.48;2263683;78;21270;-73
2021/04/13 06:14:42;;;;;;;14.73;3.90;;;;;;;1.42;84.99;99736.98;2263704;78;21276;-73
2021/04/13 06:17:44;;;;;;;14.40;4.25;;;;;;;1.49;84.76;99732.62;2263548;78;21276;-74
2021/04/13 06:20:47;;;;;;;11.90;4.10;;;;;;;1.47;84.40;99733.93;2263738;79;21709;-73
2021/04/13 06:23:49;;;;;;;13.13;3.77;;;;;;;1.52;84.66;99743.80;2263813;78;21272;-76
2021/04/13 06:26:50;;;;;;;12.78;3.77;;;;;;;1.59;84.22;99747.62;2263606;78;21302;-72
2021/04/13 06:29:53;;;;;;;12.95;3.95;;;;;;;1.63;84.12;99750.16;2264210;78;21284;-73
2021/04/13 06:32:57;;;;;;;12.60;4.22;;;;;;;1.65;83.99;99748.84;2263782;78;21268;-73
2021/04/13 06:35:59;;;;;;;13.08;4.40;;;;;;;1.73;83.89;99748.34;2263592;79;21709;-75
2021/04/13 06:39:01;;;;;;;11.15;3.90;;;;;;;1.85;83.83;99760.28;2263674;78;21300;-74
2021/04/13 06:42:03;;;;;;;12.73;3.80;;;;;;;1.96;83.25;99758.89;2263623;78;21264;-74
2021/04/13 06:45:05;;;;;;;17.42;4.47;;;;;;;2.05;82.78;99755.77;2263690;78;21260;-75
2021/04/13 06:48:07;;;;;;;13.50;4.00;;;;;;;2.11;82.74;99761.28;2264017;78;21134;-76
2021/04/13 06:51:09;;;;;;;13.08;4.15;;;;;;;2.19;82.55;99758.17;2263740;78;21261;-73
2021/04/13 06:54:11;;;;;;;13.25;3.80;;;;;;;2.31;82.35;99767.96;2263676;78;21752;-76
2021/04/13 06:57:13;;;;;;;13.03;3.95;;;;;;;2.45;82.22;99771.23;2263619;78;21284;-75
2021/04/13 07:00:15;;;;;;;15.20;3.70;;;;;;;2.60;81.90;99771.46;2263704;78;21736;-72
2021/04/13 07:03:17;;;;;;;12.53;3.80;;;;;;;2.69;81.79;99775.69;2263579;78;21713;-72
2021/04/13 07:06:19;;;;;;;11.35;3.58;;;;;;;2.78;81.13;99783.33;2263656;78;21253;-73
2021/04/13 07:09:21;;;;;;;13.55;4.05;;;;;;;2.83;81.12;99787.14;2263636;78;21288;-73
2021/04/13 07:12:25;;;;;;;14.05;4.33;;;;;;;2.81;80.53;99792.80;2263644;78;21264;-72
2021/04/13 07:15:27;;;;;;;15.18;4.10;;;;;;;2.77;81.00;99782.90;2263455;78;21284;-72
2021/04/13 07:18:29;;;;;;;11.93;3.83;;;;;;;2.83;80.81;99778.07;2263654;78;21272;-73
2021/04/13 07:21:32;;;;;;;12.37;3.75;;;;;;;2.91;80.70;99786.60;2263584;78;21304;-72
2021/04/13 07:24:34;;;;;;;12.50;3.72;;;;;;;3.01;80.36;99788.17;2263509;78;21264;-73
2021/04/13 07:27:36;;;;;;;12.03;3.50;;;;;;;3.07;79.99;99790.67;2269370;78;21300;-72
2021/04/13 07:30:38;;;;;;;11.70;3.60;;;;;;;3.17;79.86;99794.44;2283363;78;21335;-72
2021/04/13 07:33:40;;;;;;;12.68;3.72;;;;;;;3.31;79.29;99789.89;2283415;78;21692;-72
2021/04/13 07:36:42;;;;;;;12.88;3.58;;;;;;;3.50;78.55;99794.33;2283509;78;21284;-72
2021/04/13 07:39:44;;;;;;;13.50;4.22;;;;;;;3.50;78.55;99794.33;2283770;78;21279;-72
2021/04/13 07:42:46;;;;;;;11.50;4.08;;;;;;;3.52;77.96;99794.30;2283490;78;21102;-72
2021/04/13 07:45:48;;;;;;;12.78;4.20;;;;;;;3.59;78.85;99794.19;2283423;78;21287;-72
2021/04/13 07:48:50;;;;;;;13.38;4.47;;;;;;;3.67;78.24;99795.34;2283534;78;21280;-72
2021/04/13 07:51:53;;;;;;;15.13;4.92;;;;;;;3.72;77.75;99796.14;2283883;78;21129;-72
2021/04/13 07:54:55;;;;;;;16.80;5.70;;;;;;;3.71;77.87;99794.87;2283418;78;21279;-72
2021/04/13 07:57:57;;;;;;;18.05;6.28;;;;;;;3.70;77.36;99803.08;2283495;78;21291;-72
2021/04/13 08:00:58;;;;;;;20.27;8.18;;;;;;;3.66;77.40;99803.16;2283480;78;21292;-72
2021/04/13 08:04:01;;;;;;;19.07;6.85;;;;;;;3.69;77.53;99811.73;2283542;78;21319;-73
2021/04/13 08:07:05;;;;;;;18.80;6.37;;;;;;;3.80;76.93;99816.30;2283525;78;21287;-72
2021/04/13 08:10:07;;;;;;;17.62;6.10;;;;;;;4.03;77.12;99812.44;2283257;78;21283;-72
2021/04/13 08:13:09;;;;;;;19.45;6.47;;;;;;;4.24;76.48;99809.89;2283404;78;21712;-72
2021/04/13 08:16:12;;;;;;;17.65;5.85;;;;;;;4.29;75.19;99806.75;2283399;78;21268;-72
2021/04/13 08:19:14;;;;;;;17.92;5.70;;;;;;;4.41;75.62;99815.19;2283419;78;21271;-72
2021/04/13 08:22:16;;;;;;;16.95;5.67;;;;;;;4.57;75.15;99807.51;2283356;78;21280;-72
2021/04/13 08:25:18;;;;;;;17.32;5.83;;;;;;;4.66;74.22;99816.40;2283400;78;21293;-72
2021/04/13 08:28:20;;;;;;;16.77;5.40;;;;;;;4.84;74.42;99807.37;2275468;78;21261;-72
2021/04/13 08:34:43;;;;;;;15.90;5.20;;;;;;;4.88;72.80;99816.39;2236168;79;21572;-72
2021/04/13 08:37:47;;;;;;;15.05;4.70;;;;;;;4.88;73.09;99812.03;2263534;79;21287;-73
2021/04/13 08:40:48;;;;;;;13.32;4.37;;;;;;;4.87;73.10;99810.35;2263570;78;21300;-72
2021/04/13 08:43:51;;;;;;;12.93;3.92;;;;;;;4.85;72.93;99814.25;2263623;79;21725;-72
2021/04/13 08:46:53;;;;;;;;;;;;;;;4.81;72.40;99810.46;2266073;78;21134;-73
2021/04/13 08:49:55;;;;;;;14.45;4.05;;;;;;;4.84;72.91;99799.56;2263645;79;20253;-73
2021/04/13 08:52:58;;;;;;;11.05;3.47;;;;;;;5.03;72.88;99790.06;2263554;78;21232;-74
2021/04/13 08:56:01;;;;;;;8.75;3.10;;;;;;;5.09;72.96;99784.70;2263532;79;21784;-73
2021/04/13 08:59:03;;;;;;;10.53;3.30;;;;;;;4.97;72.24;99783.67;2263612;78;21269;-74
2021/04/13 09:02:05;;;;;;;13.22;3.35;;;;;;;4.94;73.32;99805.84;2263570;78;21725;-73
2021/04/13 09:05:07;;;;;;;10.63;3.27;;;;;;;4.82;71.77;99790.09;2263647;78;21741;-73
2021/04/13 09:08:09;;;;;;;13.10;3.42;;;;;;;4.90;72.97;99794.68;2263530;78;21138;-73
2021/04/13 09:11:12;;;;;;;10.08;2.92;;;;;;;4.90;71.97;99786.88;2263612;79;21316;-73
2021/04/13 09:14:14;;;;;;;10.70;3.47;;;;;;;4.82;71.61;99803.08;2263543;78;21129;-73
2021/04/13 09:17:16;;;;;;;13.50;3.77;;;;;;;4.82;71.87;99797.89;2263910;78;21130;-74
2021/04/13 09:20:18;;;;;;;11.22;3.22;;;;;;;4.97;72.67;99793.66;2263433;78;21542;-73
2021/04/13 09:23:21;;;;;;;13.08;3.80;;;;;;;5.07;71.83;99799.93;2263464;78;21284;-73
2021/04/13 09:26:23;;;;;;;11.63;3.55;;;;;;;5.09;72.49;99804.67;2263530;79;21581;-73
2021/04/13 09:29:25;;;;;;;13.95;3.55;;;;;;;5.04;71.46;99791.75;2276955;78;21161;-73
2021/04/13 09:32:27;;;;;;;14.18;3.25;;;;;;;4.78;71.79;99789.73;2283313;78;21145;-73
2021/04/13 09:35:30;;;;;;;12.73;3.22;;;;;;;4.68;73.19;99791.67;2250742;78;21755;-73
2021/04/13 09:38:32;;;;;;;10.32;3.20;;;;;;;4.66;73.10;99801.26;2283323;78;21166;-73
2021/04/13 09:41:35;;;;;;;6.92;2.75;;;;;;;4.54;73.88;99797.61;2283158;78;21149;-74
2021/04/13 09:44:37;;;;;;;12.05;3.10;;;;;;;4.30;73.93;99799.83;2283353;78;21157;-75
2021/04/13 09:47:39;;;;;;;11.88;3.30;;;;;;;4.20;73.75;99793.11;2283601;78;21680;-74
2021/04/13 09:50:41;;;;;;;8.58;2.90;;;;;;;4.11;73.88;99792.39;2283254;78;21605;-73
2021/04/13 09:53:43;;;;;;;11.25;3.20;;;;;;;4.03;75.20;99794.27;2283351;78;21263;-74
2021/04/13 09:56:46;;;;;;;9.58;2.98;;;;;;;4.05;74.78;99797.71;2283194;78;21109;-73
2021/04/13 09:59:48;;;;;;;12.50;3.20;;;;;;;4.21;74.47;99798.27;2283264;78;21153;-73
2021/04/13 10:02:50;;;;;;;9.65;3.22;;;;;;;4.24;73.99;99800.80;2250488;78;21244;-73
2021/04/13 10:05:52;;;;;;;11.95;3.35;;;;;;;4.20;73.91;99802.20;2283326;78;21133;-74
2021/04/13 10:08:55;;;;;;;11.85;3.20;;;;;;;4.26;74.56;99794.28;2283697;78;21272;-74
2021/04/13 10:11:57;;;;;;;8.98;2.83;;;;;;;4.19;73.27;99801.78;2283172;78;21137;-73
2021/04/13 10:14:59;;;;;;;10.32;3.17;;;;;;;4.08;74.34;99787.69;2283313;78;21126;-73
2021/04/13 10:18:01;;;;;;;9.18;3.15;;;;;;;4.04;73.96;99784.31;2283270;78;21157;-73
2021/04/13 10:21:03;;;;;;;9.08;3.10;;;;;;;4.02;75.78;99780.86;2283395;78;21271;-74
2021/04/13 10:24:05;;;;;;;9.78;3.00;;;;;;;4.10;75.25;99772.50;2250765;78;21292;-75
2021/04/13 10:27:10;;;;;;;11.45;3.15;;;;;;;4.08;75.41;99769.52;2283223;78;21248;-74
2021/04/13 10:30:12;;;;;;;11.15;3.10;;;;;;;4.02;74.69;99774.38;2266512;78;21190;-74
2021/04/13 10:33:14;;;;;;;12.28;3.47;;;;;;;3.97;75.31;99783.55;2263454;78;21295;-73
2021/04/13 10:36:16;;;;;;;12.05;3.52;;;;;;;4.02;75.25;99781.32;2263467;78;21130;-75
2021/04/13 10:39:18;;;;;;;11.78;3.47;;;;;;;4.09;75.80;99772.08;2263480;78;21130;-74
2021/04/13 10:42:20;;;;;;;11.38;3.20;;;;;;;4.22;75.85;99765.36;2263763;79;21146;-75
2021/04/13 10:45:22;;;;;;;13.25;3.58;;;;;;;4.38;75.55;99762.00;2263406;78;21118;-74
2021/04/13 10:48:29;;;;;;;10.55;3.25;;;;;;;4.51;74.74;99764.31;2263446;78;21578;-75
2021/04/13 10:51:28;;;;;;;10.23;3.25;;;;;;;4.48;73.42;99759.19;2263412;78;21130;-74
2021/04/13 10:54:31;;;;;;;9.33;3.10;;;;;;;4.46;73.76;99757.51;2263528;79;21705;-75
2021/04/13 10:57:33;;;;;;;11.33;3.10;;;;;;;4.48;73.75;99759.61;2263788;78;21716;-74
2021/04/13 11:00:35;;;;;;;14.55;4.00;;;;;;;4.35;74.43;99759.02;2263704;79;21165;-74
2021/04/13 11:03:37;;;;;;;10.80;2.95;;;;;;;4.22;74.29;99762.30;2263644;78;21260;-74
2021/04/13 11:06:39;;;;;;;10.40;3.02;;;;;;;4.07;74.01;99756.14;2236383;79;21264;-73
2021/04/13 11:09:41;;;;;;;11.80;3.52;;;;;;;3.95;74.75;99768.89;2263638;78;21268;-73
2021/04/13 11:12:43;;;;;;;12.85;3.60;;;;;;;3.96;75.06;99775.34;2263551;78;21273;-73
2021/04/13 11:15:45;;;;;;;13.88;3.10;;;;;;;4.18;74.96;99772.79;2263735;79;21272;-73
2021/04/13 11:18:48;;;;;;;11.45;3.27;;;;;;;4.41;74.04;99760.62;2263903;79;21137;-74
2021/04/13 11:21:50;;;;;;;12.75;3.08;;;;;;;4.77;73.39;99765.50;2263510;78;21260;-73
2021/04/13 11:24:52;;;;;;;9.60;3.05;;;;;;;5.24;73.86;99748.36;2263876;78;21276;-73
2021/04/13 11:27:57;;;;;;;10.18;3.22;;;;;;;5.64;72.46;99736.95;2236049;78;21284;-74
2021/04/13 11:30:59;;;;;;;10.60;3.08;;;;;;;5.76;71.50;99740.13;2283345;78;21140;-74
2021/04/13 11:34:01;;;;;;;8.30;3.00;;;;;;;5.63;69.81;99742.20;2283468;78;21304;-74
2021/04/13 11:37:03;;;;;;;11.78;3.10;;;;;;;5.45;70.01;99730.53;2283468;78;21279;-74
2021/04/13 11:40:05;;;;;;;9.85;3.17;;;;;;;5.25;69.20;99744.03;2283477;78;21696;-74
2021/04/13 11:43:07;;;;;;;10.55;3.08;;;;;;;5.15;72.49;99739.04;2250831;78;21256;-73
2021/04/13 11:46:09;;;;;;;9.98;3.37;;;;;;;5.22;71.66;99737.16;2283844;78;21130;-74
2021/04/13 11:49:11;;;;;;;10.68;3.15;;;;;;;5.26;70.78;99741.81;2283458;78;21760;-73
2021/04/13 11:52:13;;;;;;;12.73;3.10;;;;;;;5.40;72.00;99736.28;2283760;78;21118;-73
2021/04/13 11:55:15;;;;;;;9.73;3.05;;;;;;;5.63;71.61;99741.77;2283639;78;21134;-73
2021/04/13 11:58:19;;;;;;;11.78;3.05;;;;;;;5.78;71.55;99732.69;2283427;78;21101;-73
2021/04/13 12:01:21;;;;;;;10.78;3.17;;;;;;;5.52;68.99;99734.22;2283192;78;21299;-73
2021/04/13 12:04:23;;;;;;;13.32;3.00;;;;;;;5.19;69.86;99722.93;2283456;78;21275;-73
2021/04/13 12:07:25;;;;;;;10.38;3.22;;;;;;;5.06;70.92;99728.88;2283607;78;21276;-73
2021/04/13 12:10:27;;;;;;;10.68;3.20;;;;;;;5.00;69.67;99744.63;2283770;78;21279;-73
2021/04/13 12:13:29;;;;;;;11.93;3.37;;;;;;;4.90;69.87;99726.20;2283442;78;21287;-74
2021/04/13 12:16:31;;;;;;;12.95;3.52;;;;;;;4.97;70.42;99736.45;2283434;78;21640;-73
2021/04/13 12:19:33;;;;;;;10.85;3.33;;;;;;;5.11;69.92;99731.36;2283413;78;21701;-73
2021/04/13 12:22:35;;;;;;;11.78;3.35;;;;;;;5.43;70.91;99727.97;2283633;78;21268;-73
2021/04/13 12:25:37;;;;;;;13.53;3.40;;;;;;;5.74;71.01;99721.95;2283698;78;21276;-73
2021/04/13 12:28:42;;;;;;;14.33;3.42;;;;;;;5.75;68.99;99722.36;2283453;78;21284;-73
2021/04/13 12:31:43;;;;;;;11.10;3.52;;;;;;;5.51;67.82;99733.81;2283209;78;21263;-73
2021/04/13 12:34:45;;;;;;;12.10;3.60;;;;;;;5.30;69.01;99707.04;2283373;78;21264;-73
2021/04/13 12:37:47;;;;;;;13.03;4.25;;;;;;;5.12;69.57;99704.47;2283400;78;21259;-73
2021/04/13 12:40:49;;;;;;;15.03;3.80;;;;;;;4.94;69.75;99702.72;2283340;78;21137;-73
2021/04/13 12:43:51;;;;;;;10.38;3.50;;;;;;;4.87;68.78;99716.77;2250667;78;21284;-73
2021/04/13 12:46:53;;;;;;;13.78;3.45;;;;;;;4.74;69.35;99699.72;2283719;78;21265;-73
2021/04/13 12:49:55;;;;;;;11.90;3.35;;;;;;;4.85;68.99;99694.67;2283358;78;21248;-73
2021/04/13 12:52:57;;;;;;;12.68;3.60;;;;;;;4.88;69.45;99692.45;2283657;78;21276;-74
2021/04/13 12:56:00;;;;;;;12.95;3.77;;;;;;;4.86;69.16;99683.39;2283378;78;21137;-73
2021/04/13 12:59:02;;;;;;;11.33;3.80;;;;;;;4.83;69.32;99683.92;2283668;78;21308;-74
2021/04/13 13:02:05;;;;;;;14.80;4.03;;;;;;;4.81;68.81;99677.47;2282844;78;21122;-73
2021/04/13 13:05:07;;;;;;;10.23;3.45;;;;;;;4.99;69.63;99667.05;2283413;78;21122;-74
2021/04/13 13:08:09;;;;;;;11.53;3.62;;;;;;;5.13;69.99;99666.72;2283363;78;21267;-73
2021/04/13 13:11:11;;;;;;;15.15;4.05;;;;;;;5.16;69.74;99665.79;2283581;78;21717;-73
2021/04/13 13:14:13;;;;;;;15.80;3.87;;;;;;;5.16;68.87;99659.29;2283334;78;21581;-73
2021/04/13 13:17:15;;;;;;;17.27;4.10;;;;;;;5.16;70.07;99655.39;2283483;78;21263;-72
2021/04/13 13:20:17;;;;;;;16.02;4.40;;;;;;;5.10;68.23;99669.83;2283686;78;21307;-73
2021/04/13 13:23:19;;;;;;;14.68;4.17;;;;;;;4.96;67.98;99660.63;2283351;78;21170;-73
2021/04/13 13:26:21;;;;;;;13.85;4.00;;;;;;;4.91;69.27;99650.77;2283340;78;21133;-72
2021/04/13 13:29:23;;;;;;;19.07;4.83;;;;;;;4.83;69.29;99648.38;2277456;78;21293;-73
2021/04/13 13:32:25;;;;;;;16.40;4.50;;;;;;;4.84;69.89;99642.30;2263422;78;21142;-74
2021/04/13 13:35:27;;;;;;;15.43;4.45;;;;;;;4.86;69.69;99635.30;2263602;78;21736;-73
2021/04/13 13:38:31;;;;;;;14.63;4.35;;;;;;;4.88;70.18;99635.26;2263489;78;21614;-73
2021/04/13 13:41:33;;;;;;;14.00;3.77;;;;;;;4.90;68.81;99637.39;2263310;79;21630;-73
2021/04/13 13:44:35;;;;;;;15.18;4.42;;;;;;;4.88;69.45;99632.66;2263489;78;21606;-73
2021/04/13 13:47:38;;;;;;;16.52;4.70;;;;;;;4.90;70.12;99628.72;2263474;79;21137;-73
2021/04/13 13:50:40;;;;;;;13.98;4.17;;;;;;;4.94;70.24;99623.86;2263361;78;21121;-73
2021/04/13 13:53:42;;;;;;;14.90;4.47;;;;;;;4.92;69.78;99614.80;2263742;78;21280;-73
2021/04/13 13:56:44;;;;;;;15.18;4.50;;;;;;;4.96;70.54;99614.29;2263847;78;21700;-73
2021/04/13 13:59:46;;;;;;;14.13;4.28;;;;;;;5.07;70.01;99616.17;2263547;78;21277;-73
2021/04/13 14:02:48;;;;;;;14.87;4.05;;;;;;;5.14;69.04;99611.22;2263482;78;21122;-73
2021/04/13 14:05:51;;;;;;;15.95;5.10;;;;;;;5.16;69.06;99604.67;2263609;78;21700;-74
2021/04/13 14:08:53;;;;;;;14.53;3.75;;;;;;;5.18;69.88;99598.97;2263582;78;21708;-73
2021/04/13 14:11:54;;;;;;;14.68;4.03;;;;;;;5.17;68.69;99603.33;2263468;79;21142;-74
2021/04/13 14:14:56;;;;;;;16.45;4.55;;;;;;;5.04;68.92;99608.42;2263488;78;21130;-73
2021/04/13 14:17:58;;;;;;;14.75;4.25;;;;;;;4.94;69.31;99599.16;2263482;78;21609;-72
2021/04/13 14:21:01;;;;;;;18.62;4.62;;;;;;;5.01;70.16;99591.60;2263662;78;21602;-73